Time;durP1;ratioP1;P1;durP2;ratioP2;P2;SDS_P1;SDS_P2;PMS_P1;PMS_P2;Temp;Humidity;BMP_temperature;BMP_pressure;BME280_temperature;BME280_humidity;BME280_pressure;Samples;Min_cycle;Max_cycle;Signal;HPM_P1;HPM_P2
2022/05/30 00:00:39;;;;;;;4.90;1.20;;;17.10;63.40;;;;;;4975383;28;20030;-77
2022/05/30 00:03:05;;;;;;;3.65;1.10;;;17.00;64.00;;;;;;4958206;28;20042;-77
2022/05/30 00:05:31;;;;;;;8.73;1.27;;;16.90;65.10;;;;;;4975384;28;20101;-79
2022/05/30 00:07:58;;;;;;;3.90;1.15;;;16.90;64.90;;;;;;4975733;28;20541;-78
2022/05/30 00:10:24;;;;;;;4.20;1.25;;;16.80;64.90;;;;;;4974750;28;20054;-78
2022/05/30 00:12:49;;;;;;;4.07;1.40;;;16.80;65.10;;;;;;4974867;28;20062;-78
2022/05/30 00:15:18;;;;;;;3.10;0.90;;;16.80;65.10;;;;;;4975199;28;20489;-78
2022/05/30 00:17:44;;;;;;;7.57;1.20;;;16.70;65.10;;;;;;4975033;28;20478;-78
2022/05/30 00:20:10;;;;;;;1.75;0.80;;;16.60;65.30;;;;;;4957813;28;20033;-78
2022/05/30 00:22:36;;;;;;;2.78;0.95;;;16.50;65.60;;;;;;4974997;28;20050;-78
2022/05/30 00:25:02;;;;;;;5.40;1.00;;;16.40;65.40;;;;;;4974219;28;20026;-78
2022/05/30 00:27:29;;;;;;;10.52;1.20;;;16.30;65.10;;;;;;4973588;28;20542;-79
2022/05/30 00:29:54;;;;;;;12.25;1.33;;;16.40;65.00;;;;;;4958065;28;20368;-78
2022/05/30 00:32:20;;;;;;;4.25;1.35;;;16.50;64.40;;;;;;4957402;28;20038;-78
2022/05/30 00:34:46;;;;;;;4.25;1.10;;;16.50;64.40;;;;;;4974381;28;20023;-78
2022/05/30 00:37:12;;;;;;;4.25;1.00;;;16.40;66.10;;;;;;4974947;28;20034;-79
2022/05/30 00:39:37;;;;;;;3.50;1.17;;;16.40;67.00;;;;;;4974353;28;20477;-79
2022/05/30 00:42:14;;;;;;;3.58;0.68;;;16.50;66.60;;;;;;4974214;28;20565;-78
2022/05/30 00:44:42;;;;;;;5.72;0.95;;;16.40;66.30;;;;;;4974375;28;20038;-78
2022/05/30 00:47:07;;;;;;;2.55;1.08;;;16.30;67.10;;;;;;4957384;28;20023;-78
2022/05/30 00:49:35;;;;;;;5.32;1.02;;;16.30;66.70;;;;;;4974581;28;20066;-78
2022/05/30 00:52:05;;;;;;;4.80;1.30;;;16.20;67.30;;;;;;4974756;28;20475;-78
2022/05/30 00:54:40;;;;;;;4.70;1.05;;;16.10;67.50;;;;;;4973603;28;20027;-78
2022/05/30 00:57:20;;;;;;;3.38;1.05;;;16.10;67.60;;;;;;4974553;28;20051;-79
2022/05/30 00:59:59;;;;;;;5.78;1.60;;;16.00;68.30;;;;;;4974380;28;20065;-78
2022/05/30 01:02:29;;;;;;;2.72;0.90;;;15.80;68.10;;;;;;4974118;28;20018;-78
2022/05/30 01:07:42;;;;;;;6.10;1.95;;;15.80;69.30;;;;;;4973975;28;20107;-78
2022/05/30 01:10:11;;;;;;;6.95;1.90;;;15.70;69.30;;;;;;4973689;28;20452;-77
2022/05/30 01:12:52;;;;;;;3.97;1.67;;;15.60;68.90;;;;;;4956921;28;20039;-78
2022/05/30 01:15:20;;;;;;;5.05;1.40;;;15.80;69.20;;;;;;4974471;28;20078;-78
2022/05/30 01:18:06;;;;;;;5.28;2.15;;;15.70;69.40;;;;;;4980167;28;20076;-79
2022/05/30 01:20:55;;;;;;;3.58;1.40;;;15.80;69.20;;;;;;4993202;28;20080;-78
2022/05/30 01:23:49;;;;;;;4.45;1.90;;;15.80;69.30;;;;;;4973771;28;20046;-78
2022/05/30 01:26:36;;;;;;;3.17;1.60;;;15.80;70.10;;;;;;4974015;28;20538;-78
2022/05/30 01:29:19;;;;;;;5.88;1.50;;;15.70;70.90;;;;;;4973405;28;20027;-78
2022/05/30 01:31:45;;;;;;;4.53;1.90;;;15.70;71.20;;;;;;4983279;28;20061;-78
2022/05/30 01:34:11;;;;;;;4.95;1.40;;;15.60;71.90;;;;;;4993683;28;20030;-78
2022/05/30 01:36:37;;;;;;;4.25;1.40;;;15.60;72.30;;;;;;4992895;28;20034;-78
2022/05/30 01:39:03;;;;;;;6.85;1.70;;;15.40;72.50;;;;;;4991920;28;20014;-78
2022/05/30 01:41:30;;;;;;;4.43;1.17;;;15.50;72.70;;;;;;4992961;28;20454;-78
2022/05/30 01:43:56;;;;;;;5.63;1.30;;;15.50;72.60;;;;;;4987695;28;20026;-78
2022/05/30 01:46:23;;;;;;;4.65;1.10;;;15.50;72.60;;;;;;4973037;28;20031;-79
2022/05/30 01:48:49;;;;;;;6.28;1.35;;;15.40;73.00;;;;;;4973722;28;20026;-78
2022/05/30 01:51:17;;;;;;;4.13;1.00;;;15.30;73.10;;;;;;4955911;28;20031;-78
2022/05/30 01:53:43;;;;;;;3.45;1.00;;;15.30;74.10;;;;;;4972969;28;20042;-78
2022/05/30 01:56:08;;;;;;;6.72;1.33;;;15.30;74.50;;;;;;4973418;28;20086;-78
2022/05/30 01:58:34;;;;;;;5.20;1.30;;;15.30;74.20;;;;;;4956023;28;20121;-78
2022/05/30 02:01:05;;;;;;;8.25;1.25;;;15.10;75.60;;;;;;4973615;28;20410;-78
2022/05/30 02:03:33;;;;;;;5.10;1.03;;;15.30;74.70;;;;;;4955823;28;20507;-78
2022/05/30 02:05:59;;;;;;;2.25;0.82;;;15.20;74.80;;;;;;4973205;28;20413;-78
2022/05/30 02:08:25;;;;;;;7.22;1.30;;;15.10;75.90;;;;;;4973329;28;20022;-78
2022/05/30 02:10:51;;;;;;;4.00;1.17;;;15.10;76.10;;;;;;4973105;28;20034;-78
2022/05/30 02:13:16;;;;;;;4.18;1.33;;;15.00;76.80;;;;;;4973319;28;20053;-78
2022/05/30 02:18:26;;;;;;;7.90;1.10;;;14.90;76.90;;;;;;4972917;28;20045;-78
2022/05/30 02:20:52;;;;;;;3.72;1.00;;;14.90;77.30;;;;;;4972808;28;20526;-78
2022/05/30 02:23:17;;;;;;;3.88;1.30;;;14.70;78.20;;;;;;4972720;28;20050;-78
2022/05/30 02:25:44;;;;;;;2.70;1.15;;;14.80;78.60;;;;;;4973238;28;20031;-78
2022/05/30 02:28:10;;;;;;;3.63;1.00;;;14.70;78.80;;;;;;4973205;28;20045;-78
2022/05/30 02:30:36;;;;;;;2.83;0.80;;;14.60;79.20;;;;;;4972916;28;20105;-78
2022/05/30 02:38:30;;;;;;;2.25;0.80;;;14.50;80.20;;;;;;4953711;29;20037;-78
2022/05/30 02:40:56;;;;;;;2.35;1.10;;;14.60;80.70;;;;;;4953363;29;20027;-78
2022/05/30 02:43:21;;;;;;;10.95;1.95;;;14.60;81.00;;;;;;4955365;28;20037;-78
2022/05/30 02:45:47;;;;;;;3.55;1.08;;;14.60;81.00;;;;;;4973077;28;20035;-78
2022/05/30 02:48:12;;;;;;;3.88;1.05;;;14.50;81.80;;;;;;4972870;28;20456;-78
2022/05/30 02:50:38;;;;;;;2.78;1.00;;;14.50;81.40;;;;;;4975601;28;20407;-78
2022/05/30 02:53:04;;;;;;;3.67;0.93;;;14.50;81.70;;;;;;4976557;28;20026;-78
2022/05/30 02:55:30;;;;;;;1.85;0.90;;;14.40;82.50;;;;;;4976590;28;20054;-78
2022/05/30 02:57:55;;;;;;;3.47;1.20;;;14.30;83.20;;;;;;4976311;28;20042;-78
2022/05/30 03:00:21;;;;;;;4.30;0.90;;;14.30;83.50;;;;;;4976342;28;20031;-78
2022/05/30 03:02:47;;;;;;;2.40;1.00;;;14.40;83.20;;;;;;4976473;28;20027;-78
2022/05/30 03:05:13;;;;;;;2.20;1.00;;;14.30;83.50;;;;;;4976633;28;20394;-78
2022/05/30 03:07:38;;;;;;;6.50;1.35;;;14.20;83.90;;;;;;4975998;28;20491;-79
2022/05/30 03:10:04;;;;;;;3.15;0.90;;;14.10;84.80;;;;;;4976292;28;20031;-78
2022/05/30 03:12:30;;;;;;;5.85;1.13;;;14.20;85.10;;;;;;4976311;28;20141;-78
2022/05/30 03:14:56;;;;;;;2.30;1.05;;;14.10;85.70;;;;;;4958604;28;20109;-78
2022/05/30 03:17:22;;;;;;;6.07;1.20;;;14.10;86.10;;;;;;4976269;28;20042;-78
2022/05/30 03:19:47;;;;;;;2.75;1.10;;;14.10;86.70;;;;;;4975879;28;20070;-78
2022/05/30 03:22:13;;;;;;;6.38;1.50;;;14.00;86.60;;;;;;4976179;28;20031;-78
2022/05/30 03:24:39;;;;;;;3.35;1.60;;;13.90;87.60;;;;;;4976187;28;20030;-78
2022/05/30 03:27:05;;;;;;;6.32;1.15;;;13.90;87.70;;;;;;4976405;28;20023;-78
2022/05/30 03:29:31;;;;;;;4.35;1.25;;;14.00;87.80;;;;;;4975888;28;20031;-78
2022/05/30 03:31:57;;;;;;;3.25;1.20;;;14.00;87.90;;;;;;4975835;28;20030;-78
2022/05/30 03:34:23;;;;;;;7.15;1.33;;;14.10;87.10;;;;;;4981790;28;20113;-78
2022/05/30 03:36:49;;;;;;;4.28;1.02;;;14.10;87.80;;;;;;4995026;28;20467;-78
2022/05/30 03:39:14;;;;;;;6.07;1.73;;;14.10;87.80;;;;;;4995377;28;20501;-78
2022/05/30 03:41:40;;;;;;;2.72;1.20;;;13.90;88.30;;;;;;4995617;28;20092;-78
2022/05/30 03:44:06;;;;;;;4.15;1.33;;;13.70;89.50;;;;;;4985228;28;20102;-77
2022/05/30 03:46:32;;;;;;;1.98;0.90;;;13.60;90.10;;;;;;4975817;28;20431;-78
2022/05/30 03:48:58;;;;;;;3.38;0.90;;;13.60;90.50;;;;;;4975168;28;20042;-78
2022/05/30 03:51:24;;;;;;;5.07;1.20;;;13.60;90.50;;;;;;4975849;28;20113;-78
2022/05/30 03:53:51;;;;;;;2.40;0.98;;;13.50;90.00;;;;;;4957737;28;20033;-79
2022/05/30 03:56:19;;;;;;;3.60;1.25;;;13.60;90.20;;;;;;4975674;28;20057;-78
2022/05/30 03:58:45;;;;;;;2.65;1.20;;;13.80;89.40;;;;;;4978543;28;20034;-78
2022/05/30 04:01:10;;;;;;;9.20;1.50;;;13.80;89.00;;;;;;4974835;28;20034;-78
2022/05/30 04:03:37;;;;;;;2.28;0.90;;;13.70;89.10;;;;;;4975174;28;20030;-78
2022/05/30 04:06:03;;;;;;;2.50;0.98;;;13.90;89.00;;;;;;4975435;28;20045;-78
2022/05/30 04:08:29;;;;;;;7.97;1.55;;;13.80;89.00;;;;;;4975490;28;20495;-78
2022/05/30 04:10:55;;;;;;;10.18;1.17;;;13.80;88.80;;;;;;4975013;28;20069;-78
2022/05/30 04:13:21;;;;;;;2.40;0.90;;;13.70;89.70;;;;;;4975211;28;20061;-78
2022/05/30 04:15:46;;;;;;;7.47;1.35;;;13.70;88.60;;;;;;4975186;28;20031;-80
2022/05/30 04:18:13;;;;;;;3.17;1.25;;;13.60;88.70;;;;;;4975208;28;20030;-78
2022/05/30 04:20:40;;;;;;;6.80;1.35;;;13.70;88.70;;;;;;4975092;28;20030;-78
2022/05/30 04:23:05;;;;;;;4.00;1.08;;;13.60;88.80;;;;;;4975019;28;20066;-79
2022/05/30 04:25:31;;;;;;;2.05;0.98;;;13.60;89.10;;;;;;4974098;28;20030;-78
2022/05/30 04:27:57;;;;;;;6.32;1.70;;;13.70;89.50;;;;;;4974591;28;20085;-78
2022/05/30 04:30:23;;;;;;;3.95;1.20;;;13.70;89.10;;;;;;4974939;28;20411;-78
2022/05/30 04:32:49;;;;;;;3.28;1.00;;;13.80;88.90;;;;;;4974818;28;20495;-77
2022/05/30 04:35:16;;;;;;;7.05;1.20;;;13.80;88.40;;;;;;4975180;28;20065;-77
2022/05/30 04:37:43;;;;;;;5.00;1.27;;;13.80;88.40;;;;;;4974900;28;20494;-78
2022/05/30 04:40:12;;;;;;;3.85;1.00;;;13.80;88.40;;;;;;4974259;28;20034;-77
2022/05/30 04:42:38;;;;;;;4.50;1.55;;;13.80;89.30;;;;;;4974794;28;20023;-77
2022/05/30 04:45:04;;;;;;;2.15;0.85;;;13.60;90.00;;;;;;4972204;28;20032;-78
2022/05/30 04:47:35;;;;;;;7.18;0.98;;;13.50;90.30;;;;;;4981683;28;20027;-77
2022/05/30 04:50:03;;;;;;;4.20;1.30;;;13.50;90.30;;;;;;4983493;28;20540;-78
2022/05/30 04:52:28;;;;;;;3.20;0.82;;;13.70;90.20;;;;;;4978042;28;20078;-80
2022/05/30 04:54:54;;;;;;;3.78;0.70;;;13.70;90.20;;;;;;4974175;28;20038;-80
2022/05/30 04:57:19;;;;;;;3.92;1.13;;;13.70;89.90;;;;;;4974987;28;20781;-80
2022/05/30 04:59:45;;;;;;;7.10;1.23;;;13.70;90.00;;;;;;4976536;28;20031;-79
2022/05/30 05:02:12;;;;;;;4.57;1.02;;;13.60;90.40;;;;;;4982875;28;20038;-79
2022/05/30 05:04:39;;;;;;;4.97;1.00;;;13.70;89.90;;;;;;4973775;28;20023;-79
2022/05/30 05:07:05;;;;;;;8.52;1.38;;;13.80;89.70;;;;;;4977733;28;20109;-80
2022/05/30 05:09:35;;;;;;;4.82;1.20;;;13.80;90.00;;;;;;4974088;28;21417;-80
2022/05/30 05:12:01;;;;;;;4.90;1.33;;;13.70;89.70;;;;;;4962490;28;20038;-79
2022/05/30 05:14:26;;;;;;;2.70;1.10;;;13.80;89.70;;;;;;4972007;28;20019;-79
2022/05/30 05:16:52;;;;;;;3.67;0.90;;;13.80;89.00;;;;;;4970743;28;20027;-79
2022/05/30 05:19:18;;;;;;;4.68;1.23;;;13.90;89.10;;;;;;4973286;28;20058;-80
2022/05/30 05:21:48;;;;;;;3.33;1.10;;;13.80;88.60;;;;;;4971762;28;20487;-80
2022/05/30 05:24:16;;;;;;;4.70;1.33;;;13.70;88.90;;;;;;4973874;28;20073;-80
2022/05/30 05:26:49;;;;;;;3.72;1.30;;;13.70;89.80;;;;;;4955330;28;20109;-79
2022/05/30 05:29:16;;;;;;;4.28;1.17;;;13.70;90.10;;;;;;4974046;28;20030;-80
2022/05/30 05:31:42;;;;;;;2.53;0.98;;;13.80;89.90;;;;;;4971933;28;20097;-80
2022/05/30 05:34:10;;;;;;;5.35;1.23;;;13.90;89.80;;;;;;4974113;28;20026;-80
2022/05/30 05:36:44;;;;;;;6.22;0.93;;;13.80;90.20;;;;;;4973886;28;20033;-79
2022/05/30 05:39:10;;;;;;;5.72;1.10;;;13.80;90.10;;;;;;4973220;28;20122;-79
2022/05/30 05:41:36;;;;;;;4.28;1.65;;;13.70;90.30;;;;;;4974628;28;20062;-79
2022/05/30 05:44:02;;;;;;;4.57;1.10;;;13.90;90.20;;;;;;4972137;28;20054;-79
2022/05/30 05:46:30;;;;;;;3.95;1.10;;;14.10;89.80;;;;;;4976712;28;20069;-79
2022/05/30 05:48:56;;;;;;;2.55;1.27;;;14.10;90.00;;;;;;4977214;28;20023;-79
2022/05/30 05:51:23;;;;;;;4.22;1.20;;;14.10;90.00;;;;;;4974134;28;20026;-79
2022/05/30 05:53:49;;;;;;;3.45;1.25;;;14.20;89.20;;;;;;4974218;28;20027;-79
2022/05/30 05:56:24;;;;;;;3.35;0.98;;;14.20;88.20;;;;;;4973816;28;20451;-78
2022/05/30 05:58:50;;;;;;;2.47;1.00;;;14.20;88.80;;;;;;4973752;28;20105;-78
2022/05/30 06:01:20;;;;;;;2.63;1.33;;;14.30;87.80;;;;;;4956593;28;20173;-79
2022/05/30 06:03:46;;;;;;;6.53;1.08;;;14.40;88.20;;;;;;4974007;28;20033;-78
2022/05/30 06:06:12;;;;;;;7.88;1.52;;;14.50;88.20;;;;;;4974241;28;20031;-79
2022/05/30 06:08:38;;;;;;;6.35;1.77;;;14.50;88.00;;;;;;4979250;28;20514;-79
2022/05/30 06:11:08;;;;;;;8.57;1.73;;;14.50;87.80;;;;;;4977885;28;20031;-80
2022/05/30 06:13:45;;;;;;;4.50;0.90;;;14.60;88.30;;;;;;4972705;28;20367;-80
2022/05/30 06:16:16;;;;;;;9.27;1.30;;;14.80;88.30;;;;;;4981042;28;20395;-80
2022/05/30 06:18:42;;;;;;;5.72;1.35;;;14.80;87.80;;;;;;4993186;28;20031;-80
2022/05/30 06:21:08;;;;;;;3.28;1.25;;;14.60;89.00;;;;;;4987784;28;20030;-83
2022/05/30 06:23:34;;;;;;;5.43;1.30;;;14.60;89.90;;;;;;4955602;28;20529;-80
2022/05/30 06:26:04;;;;;;;3.45;1.13;;;14.80;89.50;;;;;;4979787;28;20031;-80
2022/05/30 06:28:31;;;;;;;8.88;1.50;;;14.90;89.00;;;;;;4973784;28;20093;-79
2022/05/30 06:30:56;;;;;;;5.25;1.10;;;15.10;88.60;;;;;;4981824;28;20081;-79
2022/05/30 06:33:22;;;;;;;7.22;1.40;;;15.30;89.00;;;;;;4982093;28;20035;-80
2022/05/30 06:35:48;;;;;;;8.65;1.30;;;15.20;88.10;;;;;;4984151;28;20026;-79
2022/05/30 06:38:14;;;;;;;9.88;1.90;;;15.20;88.70;;;;;;4983998;28;20037;-80
2022/05/30 06:40:40;;;;;;;7.20;1.40;;;15.30;88.80;;;;;;4980869;28;21910;-80
2022/05/30 06:43:06;;;;;;;6.03;1.70;;;15.40;89.90;;;;;;4962683;28;20022;-90
2022/05/30 06:45:33;;;;;;;8.45;1.70;;;15.20;90.20;;;;;;4977114;28;20027;-80
2022/05/30 06:47:59;;;;;;;5.60;1.55;;;15.30;90.20;;;;;;4984835;28;20105;-80
2022/05/30 06:50:26;;;;;;;15.18;2.10;;;15.40;89.80;;;;;;4963031;28;20469;-79
2022/05/30 06:52:53;;;;;;;4.55;1.60;;;15.50;89.80;;;;;;4974911;28;20073;-79
2022/05/30 06:55:18;;;;;;;6.32;2.40;;;15.60;90.50;;;;;;4979666;28;20082;-80
2022/05/30 07:00:30;;;;;;;9.80;2.20;;;15.70;89.00;;;;;;4979988;28;20050;-80
2022/05/30 07:02:56;;;;;;;8.60;1.80;;;15.80;88.80;;;;;;4979180;28;20023;-79
2022/05/30 07:05:23;;;;;;;7.65;1.90;;;15.90;88.30;;;;;;4980533;28;20402;-79
2022/05/30 07:07:49;;;;;;;12.85;1.70;;;16.00;89.20;;;;;;4981265;28;20569;-80
2022/05/30 07:10:15;;;;;;;12.98;2.00;;;16.00;88.70;;;;;;4965717;28;20455;-79
2022/05/30 07:12:41;;;;;;;8.30;2.08;;;15.90;89.00;;;;;;4983089;28;20054;-79
2022/05/30 07:15:07;;;;;;;8.65;1.63;;;15.90;89.90;;;;;;4978273;28;20022;-80
2022/05/30 07:17:33;;;;;;;9.32;1.50;;;16.00;88.80;;;;;;4972468;28;20018;-79
2022/05/30 07:19:59;;;;;;;10.95;1.88;;;16.30;86.30;;;;;;4981203;28;20027;-79
2022/05/30 07:22:25;;;;;;;8.98;1.55;;;16.30;86.20;;;;;;4976084;28;20169;-80
2022/05/30 07:24:51;;;;;;;8.18;1.80;;;16.50;85.90;;;;;;4983188;28;20124;-80
2022/05/30 08:19:13;;;;;;;9.95;1.67;;;17.60;77.80;;;;;;5716270;23;20055;-78
2022/05/30 08:21:39;;;;;;;3.95;1.13;;;17.60;77.30;;;;;;4958994;28;20066;-78
2022/05/30 08:24:05;;;;;;;4.70;1.58;;;17.60;77.30;;;;;;4964792;28;20062;-78
2022/05/30 08:26:30;;;;;;;10.68;1.30;;;17.60;77.10;;;;;;4959911;28;20026;-77
2022/05/30 08:28:56;;;;;;;10.27;1.98;;;17.60;76.30;;;;;;4962641;28;20383;-78
2022/05/30 08:31:22;;;;;;;8.93;1.65;;;17.50;77.00;;;;;;4974162;28;20494;-77
2022/05/30 08:33:47;;;;;;;4.10;1.13;;;17.50;77.20;;;;;;4966039;28;20102;-75
2022/05/30 08:36:14;;;;;;;11.57;2.10;;;17.60;76.30;;;;;;4956779;28;20483;-75
2022/05/30 08:38:42;;;;;;;7.90;1.63;;;17.70;76.80;;;;;;4953896;28;20034;-76
2022/05/30 08:43:58;;;;;;;10.95;1.70;;;17.80;76.50;;;;;;4954557;29;20106;-76
2022/05/30 08:46:56;;;;;;;10.20;1.80;;;17.80;76.50;;;;;;4956185;28;20020;-76
2022/05/30 08:49:29;;;;;;;12.50;1.77;;;17.90;77.30;;;;;;4956393;28;20170;-76
2022/05/30 08:52:26;;;;;;;8.70;1.63;;;17.80;77.80;;;;;;4952436;28;21365;-76
2022/05/30 08:55:18;;;;;;;11.98;1.85;;;17.90;76.50;;;;;;4952666;28;20098;-75
2022/05/30 08:57:52;;;;;;;8.38;1.42;;;18.00;78.10;;;;;;4955259;28;20023;-75
2022/05/30 09:00:22;;;;;;;7.63;1.42;;;18.00;77.20;;;;;;4953579;28;20033;-75
2022/05/30 09:03:06;;;;;;;6.38;1.20;;;18.00;77.80;;;;;;4955184;28;20085;-76
2022/05/30 09:05:52;;;;;;;5.90;1.13;;;18.10;76.70;;;;;;4953622;28;20031;-76
2022/05/30 09:08:33;;;;;;;4.85;1.38;;;18.20;76.10;;;;;;4955471;28;20047;-76
2022/05/30 09:11:31;;;;;;;5.07;1.00;;;18.30;75.00;;;;;;4953598;28;20034;-76
2022/05/30 09:14:00;;;;;;;5.97;1.30;;;18.50;75.60;;;;;;4953889;28;20035;-76
2022/05/30 09:16:35;;;;;;;5.35;1.60;;;18.90;74.30;;;;;;4953496;28;20035;-76
2022/05/30 09:19:03;;;;;;;4.32;1.30;;;19.10;74.30;;;;;;4958512;28;20043;-76
2022/05/30 09:21:31;;;;;;;6.97;1.30;;;19.40;72.20;;;;;;4952171;29;20481;-76
2022/05/30 09:23:58;;;;;;;3.65;1.33;;;19.80;71.50;;;;;;4954796;28;20123;-76
2022/05/30 09:26:35;;;;;;;7.28;1.63;;;19.80;69.60;;;;;;4952874;28;20065;-76
2022/05/30 09:29:04;;;;;;;7.40;1.50;;;19.90;69.50;;;;;;4965619;28;20102;-75
2022/05/30 09:31:36;;;;;;;5.53;1.23;;;20.30;69.70;;;;;;4952600;28;20032;-76
2022/05/30 09:34:21;;;;;;;;;;;20.80;68.50;;;;;;4955824;28;20031;-76
2022/05/30 09:36:49;;;;;;;3.85;1.10;;;20.70;67.60;;;;;;4952135;29;20369;-76
2022/05/30 09:39:17;;;;;;;7.97;1.77;;;20.70;67.10;;;;;;4951550;28;20447;-76
2022/05/30 09:41:43;;;;;;;8.50;1.95;;;20.90;67.80;;;;;;4946736;28;20055;-76
2022/05/30 09:44:17;;;;;;;7.07;1.40;;;20.60;67.20;;;;;;4951629;28;20078;-76
2022/05/30 09:46:53;;;;;;;7.43;1.33;;;20.40;67.30;;;;;;4953690;28;20027;-76
2022/05/30 09:49:24;;;;;;;7.25;1.50;;;20.20;66.70;;;;;;4952667;28;20032;-76
2022/05/30 09:51:52;;;;;;;7.32;1.55;;;20.30;67.70;;;;;;4950923;28;20103;-76
2022/05/30 09:54:26;;;;;;;4.65;1.27;;;20.40;68.40;;;;;;4946542;29;20045;-74
2022/05/30 09:57:05;;;;;;;6.47;1.75;;;20.40;67.80;;;;;;4953405;28;20042;-75
2022/05/30 09:59:40;;;;;;;4.38;1.48;;;20.50;67.00;;;;;;4951542;28;20038;-75
2022/05/30 10:02:21;;;;;;;5.22;1.50;;;20.20;68.90;;;;;;4954050;28;20023;-75
2022/05/30 10:04:46;;;;;;;6.65;1.42;;;20.40;67.50;;;;;;4952324;28;20066;-75
2022/05/30 10:07:20;;;;;;;5.00;1.38;;;20.50;66.50;;;;;;4964814;28;20483;-75
2022/05/30 10:09:59;;;;;;;7.22;1.70;;;20.70;67.50;;;;;;4952210;28;20027;-76
2022/05/30 10:12:33;;;;;;;7.32;1.70;;;21.00;66.30;;;;;;4954883;28;20027;-76
2022/05/30 10:15:00;;;;;;;5.40;1.30;;;22.00;64.50;;;;;;4952432;29;20082;-75
2022/05/30 10:17:33;;;;;;;10.07;1.60;;;22.60;63.00;;;;;;4953015;28;20024;-75
2022/05/30 10:20:24;;;;;;;6.85;1.30;;;23.10;60.90;;;;;;4954462;28;20047;-74
2022/05/30 10:29:19;;;;;;;11.35;1.92;;;23.80;57.80;;;;;;4952282;29;20070;-75
2022/05/30 10:31:58;;;;;;;7.53;1.13;;;22.60;58.30;;;;;;4953938;28;20027;-75
2022/05/30 10:34:51;;;;;;;9.32;1.17;;;22.70;59.10;;;;;;4952541;28;20020;-74
2022/05/30 10:37:22;;;;;;;4.60;0.90;;;23.50;58.10;;;;;;4950941;28;20027;-74
2022/05/30 10:40:16;;;;;;;5.03;1.23;;;23.60;57.10;;;;;;4948288;28;20114;-76
2022/05/30 10:42:53;;;;;;;4.88;1.58;;;24.20;55.60;;;;;;4954108;28;20167;-75
2022/05/30 10:45:30;;;;;;;7.50;1.60;;;24.10;56.70;;;;;;4952058;29;20032;-76
2022/05/30 10:47:56;;;;;;;4.38;1.10;;;24.20;57.00;;;;;;4953752;28;20036;-76
2022/05/30 10:50:53;;;;;;;5.53;1.05;;;24.00;58.70;;;;;;4952527;28;20081;-76
2022/05/30 10:53:29;;;;;;;7.88;1.42;;;24.30;56.90;;;;;;4954259;29;20051;-75
2022/05/30 10:55:58;;;;;;;9.32;1.98;;;24.70;56.20;;;;;;4952023;28;20039;-76
2022/05/30 10:58:53;;;;;;;7.65;1.67;;;24.60;55.40;;;;;;4953901;28;20039;-76
2022/05/30 11:01:50;;;;;;;4.10;1.30;;;24.90;55.20;;;;;;4930527;29;20040;-76
2022/05/30 11:04:22;;;;;;;6.22;1.70;;;25.50;55.70;;;;;;4924660;29;20028;-75
2022/05/30 11:06:50;;;;;;;6.18;1.52;;;25.50;53.80;;;;;;4909563;29;20033;-75
2022/05/30 11:09:26;;;;;;;8.60;1.95;;;25.30;53.80;;;;;;4928341;29;20126;-76
2022/05/30 11:12:13;;;;;;;6.55;1.10;;;25.30;53.10;;;;;;4924355;29;20103;-75
2022/05/30 11:14:50;;;;;;;4.75;1.20;;;25.50;53.70;;;;;;4922789;29;20036;-75
2022/05/30 11:17:16;;;;;;;7.10;1.77;;;25.30;53.80;;;;;;4949526;29;20031;-75
2022/05/30 11:20:05;;;;;;;5.78;1.60;;;25.70;52.70;;;;;;4923822;29;20111;-75
2022/05/30 11:22:35;;;;;;;4.78;1.00;;;25.70;52.40;;;;;;4935303;29;20371;-76
2022/05/30 11:25:01;;;;;;;6.13;1.60;;;25.70;53.00;;;;;;4935816;29;20032;-76
2022/05/30 11:27:39;;;;;;;4.82;1.10;;;25.60;52.00;;;;;;4927161;29;20024;-76
2022/05/30 11:30:22;;;;;;;9.50;2.13;;;25.00;51.10;;;;;;4927775;29;20027;-76
2022/05/30 11:33:02;;;;;;;4.70;1.30;;;25.20;52.30;;;;;;4935580;29;20567;-75
2022/05/30 11:35:32;;;;;;;3.78;1.10;;;25.30;53.30;;;;;;4935883;29;20059;-75
2022/05/30 11:38:16;;;;;;;11.15;1.52;;;25.90;53.00;;;;;;4942872;29;20043;-75
2022/05/30 11:41:01;;;;;;;9.30;1.40;;;25.60;50.40;;;;;;4956965;28;20030;-75
2022/05/30 11:43:29;;;;;;;2.58;1.10;;;25.10;51.10;;;;;;4962153;28;20110;-76
2022/05/30 11:46:02;;;;;;;3.90;1.25;;;25.40;50.60;;;;;;4967256;28;20391;-75
2022/05/30 11:49:06;;;;;;;5.70;1.23;;;25.80;52.40;;;;;;4958936;28;20082;-75
2022/05/30 11:52:04;;;;;;;6.65;1.30;;;26.30;50.10;;;;;;4976131;28;20082;-75
2022/05/30 11:54:42;;;;;;;7.88;1.30;;;26.60;50.20;;;;;;4947712;28;20039;-75
2022/05/30 11:57:40;;;;;;;7.53;1.40;;;26.30;49.20;;;;;;4953976;28;20106;-75
2022/05/30 12:00:09;;;;;;;3.40;1.17;;;25.90;49.60;;;;;;4955101;28;20027;-76
2022/05/30 12:02:50;;;;;;;6.47;1.52;;;25.40;51.30;;;;;;4956148;28;20118;-76
2022/05/30 12:05:34;;;;;;;3.60;1.30;;;25.10;52.90;;;;;;4955220;28;20035;-75
2022/05/30 12:08:11;;;;;;;6.75;1.75;;;25.60;51.60;;;;;;4948886;28;20035;-75
2022/05/30 12:11:03;;;;;;;4.10;1.25;;;25.30;50.70;;;;;;4954761;28;20026;-76
2022/05/30 12:13:41;;;;;;;6.07;1.85;;;25.10;50.90;;;;;;4948721;28;20550;-75
2022/05/30 12:16:27;;;;;;;6.72;1.20;;;25.50;50.50;;;;;;4946146;28;20027;-75
2022/05/30 12:25:01;;;;;;;5.88;1.17;;;24.70;50.70;;;;;;4909071;29;20055;-76
2022/05/30 12:27:34;;;;;;;4.70;1.63;;;25.50;51.10;;;;;;4908294;29;20031;-76
2022/05/30 12:30:35;;;;;;;4.28;1.35;;;25.80;50.90;;;;;;4922492;29;20040;-76
2022/05/30 12:33:27;;;;;;;2.33;1.00;;;25.80;50.50;;;;;;4920931;29;20032;-76
2022/05/30 12:36:10;;;;;;;5.68;1.50;;;26.60;49.20;;;;;;4914461;29;20131;-76
2022/05/30 12:38:56;;;;;;;5.78;1.90;;;26.70;48.50;;;;;;4915240;29;20047;-75
2022/05/30 12:41:28;;;;;;;7.53;1.42;;;26.60;48.20;;;;;;4906818;29;20032;-76
2022/05/30 12:43:54;;;;;;;3.75;1.17;;;26.70;48.90;;;;;;4913269;29;20040;-75
2022/05/30 12:46:23;;;;;;;9.73;1.80;;;26.90;48.60;;;;;;4921297;29;20031;-76
2022/05/30 12:48:55;;;;;;;8.77;1.33;;;26.90;48.50;;;;;;4909399;29;20027;-76
2022/05/30 12:51:39;;;;;;;7.88;1.33;;;26.90;48.40;;;;;;4918956;29;20048;-76
2022/05/30 12:54:07;;;;;;;8.00;1.30;;;26.80;47.90;;;;;;4918320;29;20032;-76
2022/05/30 12:56:43;;;;;;;6.25;1.30;;;26.80;47.80;;;;;;4921839;28;20071;-76
2022/05/30 12:59:32;;;;;;;6.78;1.30;;;27.00;48.30;;;;;;4955334;28;20074;-76
2022/05/30 13:01:59;;;;;;;4.97;1.15;;;26.70;48.20;;;;;;4956015;28;20038;-76
2022/05/30 13:04:42;;;;;;;3.10;1.25;;;26.60;47.90;;;;;;4956148;28;20058;-76
2022/05/30 13:07:07;;;;;;;4.05;1.52;;;26.50;48.10;;;;;;4975135;28;20078;-76
2022/05/30 13:09:47;;;;;;;4.18;1.00;;;26.50;48.40;;;;;;4960719;28;20027;-76
2022/05/30 13:12:19;;;;;;;4.97;1.20;;;26.60;47.20;;;;;;4955402;28;20031;-76
2022/05/30 13:15:00;;;;;;;11.90;1.52;;;26.40;47.80;;;;;;4953485;28;20110;-77
2022/05/30 13:17:40;;;;;;;4.07;1.20;;;25.80;48.70;;;;;;4955570;29;20031;-76
2022/05/30 13:20:12;;;;;;;3.90;1.25;;;26.30;48.60;;;;;;4953184;29;20054;-76
2022/05/30 13:22:48;;;;;;;6.53;1.42;;;26.40;48.50;;;;;;4955170;29;20042;-76
2022/05/30 13:25:31;;;;;;;3.65;1.25;;;26.40;49.40;;;;;;4953006;28;20102;-76
2022/05/30 13:28:09;;;;;;;4.70;1.38;;;26.50;48.90;;;;;;4950714;28;20032;-76
2022/05/30 13:30:37;;;;;;;8.13;1.10;;;26.50;47.90;;;;;;4949841;28;20399;-75
2022/05/30 13:33:16;;;;;;;4.15;1.15;;;26.20;48.50;;;;;;4955182;28;20039;-75
2022/05/30 13:35:42;;;;;;;5.03;1.00;;;26.30;47.50;;;;;;4942534;29;20031;-76
2022/05/30 13:38:11;;;;;;;13.65;1.88;;;26.30;47.70;;;;;;4955596;29;20027;-76
2022/05/30 13:40:38;;;;;;;5.45;1.13;;;26.70;48.70;;;;;;4952350;29;20372;-75
2022/05/30 13:43:14;;;;;;;4.50;1.00;;;26.50;48.80;;;;;;4961542;28;20029;-75
2022/05/30 13:45:41;;;;;;;3.65;1.48;;;26.60;49.10;;;;;;4952948;29;20503;-75
2022/05/30 13:48:10;;;;;;;5.53;1.17;;;26.70;48.20;;;;;;4955169;28;20027;-74
2022/05/30 13:50:52;;;;;;;5.68;1.00;;;26.70;48.80;;;;;;4953681;28;20027;-74
2022/05/30 13:53:27;;;;;;;4.75;1.30;;;26.90;48.40;;;;;;4942441;29;20035;-75
2022/05/30 13:55:58;;;;;;;2.65;1.23;;;26.80;48.10;;;;;;4954813;28;20496;-75
2022/05/30 13:58:25;;;;;;;5.13;1.20;;;26.70;48.10;;;;;;4946212;28;20482;-74
2022/05/30 14:00:52;;;;;;;4.18;1.30;;;26.60;47.70;;;;;;4948730;28;20264;-76
2022/05/30 14:03:18;;;;;;;2.95;1.10;;;26.70;48.60;;;;;;4945630;28;20103;-75
2022/05/30 14:05:46;;;;;;;6.07;1.35;;;26.70;48.70;;;;;;4954532;28;20470;-74
2022/05/30 14:08:29;;;;;;;4.75;1.48;;;26.50;48.20;;;;;;4960460;28;20102;-75
2022/05/30 14:11:00;;;;;;;8.38;1.77;;;26.40;49.20;;;;;;4940071;29;20027;-76
2022/05/30 14:13:44;;;;;;;7.20;1.52;;;26.60;48.30;;;;;;4946794;28;20059;-75
2022/05/30 14:16:33;;;;;;;3.38;1.20;;;26.50;48.20;;;;;;4951314;28;20053;-75
2022/05/30 14:19:25;;;;;;;10.80;1.90;;;26.60;48.20;;;;;;4943254;28;20035;-75
2022/05/30 14:21:54;;;;;;;2.00;0.88;;;26.50;48.10;;;;;;4950971;28;20130;-75
2022/05/30 14:24:49;;;;;;;5.63;0.98;;;26.40;48.80;;;;;;4959369;28;20022;-75
2022/05/30 14:27:18;;;;;;;7.90;1.20;;;26.70;47.60;;;;;;4939926;29;20068;-74